PWSweather.com
Personal Weather Stations
Station Observations
WAREHAM1
West Wareham, MA 02576

West Wareham, MA 02576

Lat: 41.7961059, Lon: -70.775612

Elevation: 88

Station Type: Davis Vantage Vue

http://www.gateway2capecod.com

High Low Average
Temperature 45.3°F7.4°F 20.8°F-6.2°F 34.9°F1.6°F
Dew Point 33.4°F0.8°F 11.5°F-11.4°F 22.2°F-5.4°F
Winds 6.9 mph WSW11.1 mph WSW Calm Calm 2.1 mph 3.4 mph
Wind Gusts 15.0 mph24.1 mph -- 6.1 mph9.8 mph
Humidity 79% 44% 60%
Pressure 30.47 in1031.80 in 30.12 in1020.00 in -
Precipitation 0.00 in0.00 in - -
Hour Temp Dew Point Humidity Winds Wind Gusts Pressure Precip Precip Rate Daily Precip Total
12:01 AM 26.2°F-3.2°C 11.5°F-11.4°C 53% Calm Calm 2.0 mph3.2 kmh 30.44 in1030.8 mb 0.00 in0.0 mm 0.00 in/hr0.0 mm/hr 0.00 in0.0 mm
12:11 AM 26.2°F-3.2°C 11.5°F-11.4°C 53% 0.9 mph WSW1.4 kmh WSW 4.0 mph6.4 kmh 30.45 in1031.2 mb 0.00 in0.0 mm 0.00 in/hr0.0 mm/hr 0.00 in0.0 mm
12:21 AM 26.1°F-3.3°C 11.7°F-11.3°C 54% Calm Calm 2.9 mph4.7 kmh 30.45 in1031.2 mb 0.00 in0.0 mm 0.00 in/hr0.0 mm/hr 0.00 in0.0 mm
12:31 AM 26.1°F-3.3°C 11.7°F-11.3°C 54% Calm Calm 4.0 mph6.4 kmh 30.45 in1031.2 mb 0.00 in0.0 mm 0.00 in/hr0.0 mm/hr 0.00 in0.0 mm
12:41 AM 25.9°F-3.4°C 12.0°F-11.1°C 55% 0.9 mph SW1.4 kmh SW 5.0 mph8.0 kmh 30.45 in1031.2 mb 0.00 in0.0 mm 0.00 in/hr0.0 mm/hr 0.00 in0.0 mm
12:51 AM 25.9°F-3.4°C 12.4°F-10.9°C 56% Calm Calm 4.0 mph6.4 kmh 30.45 in1031.2 mb 0.00 in0.0 mm 0.00 in/hr0.0 mm/hr 0.00 in0.0 mm
01:01 AM 25.5°F-3.6°C 12.4°F-10.9°C 57% Calm Calm 2.0 mph3.2 kmh 30.45 in1031.2 mb 0.00 in0.0 mm 0.00 in/hr0.0 mm/hr 0.00 in0.0 mm
01:11 AM 25.3°F-3.7°C 12.6°F-10.8°C 58% Calm Calm 2.0 mph3.2 kmh 30.45 in1031.2 mb 0.00 in0.0 mm 0.00 in/hr0.0 mm/hr 0.00 in0.0 mm
01:21 AM 25.2°F-3.8°C 12.9°F-10.6°C 59% Calm Calm 0.9 mph1.4 kmh 30.45 in1031.2 mb 0.00 in0.0 mm 0.00 in/hr0.0 mm/hr 0.00 in0.0 mm
01:31 AM 24.8°F-4.0°C 12.6°F-10.8°C 59% Calm Calm 0.9 mph1.4 kmh 30.46 in1031.5 mb 0.00 in0.0 mm 0.00 in/hr0.0 mm/hr 0.00 in0.0 mm
01:41 AM 24.4°F-4.2°C 12.6°F-10.8°C 60% Calm Calm 1.0 mph1.6 kmh 30.46 in1031.5 mb 0.00 in0.0 mm 0.00 in/hr0.0 mm/hr 0.00 in0.0 mm
01:51 AM 24.1°F-4.4°C 13.3°F-10.4°C 63% Calm Calm -- 30.47 in1031.8 mb 0.00 in0.0 mm 0.00 in/hr0.0 mm/hr 0.00 in0.0 mm
02:01 AM 23.7°F-4.6°C 13.3°F-10.4°C 64% Calm Calm 1.0 mph1.6 kmh 30.47 in1031.8 mb 0.00 in0.0 mm 0.00 in/hr0.0 mm/hr 0.00 in0.0 mm
02:11 AM 23.5°F-4.7°C 13.5°F-10.3°C 65% Calm Calm -- 30.47 in1031.8 mb 0.00 in0.0 mm 0.00 in/hr0.0 mm/hr 0.00 in0.0 mm
02:21 AM 23.4°F-4.8°C 12.9°F-10.6°C 64% Calm Calm 1.0 mph1.6 kmh 30.47 in1031.8 mb 0.00 in0.0 mm 0.00 in/hr0.0 mm/hr 0.00 in0.0 mm
02:31 AM 23.4°F-4.8°C 13.3°F-10.4°C 65% Calm Calm 0.9 mph1.4 kmh 30.47 in1031.8 mb 0.00 in0.0 mm 0.00 in/hr0.0 mm/hr 0.00 in0.0 mm
02:41 AM 23.4°F-4.8°C 13.3°F-10.4°C 65% Calm Calm 0.9 mph1.4 kmh 30.47 in1031.8 mb 0.00 in0.0 mm 0.00 in/hr0.0 mm/hr 0.00 in0.0 mm
02:51 AM 23.4°F-4.8°C 13.3°F-10.4°C 65% Calm Calm 0.9 mph1.4 kmh 30.47 in1031.8 mb 0.00 in0.0 mm 0.00 in/hr0.0 mm/hr 0.00 in0.0 mm
03:01 AM 23.5°F-4.7°C 13.5°F-10.3°C 65% Calm Calm 0.9 mph1.4 kmh 30.46 in1031.5 mb 0.00 in0.0 mm 0.00 in/hr0.0 mm/hr 0.00 in0.0 mm
03:11 AM 23.4°F-4.8°C 13.6°F-10.2°C 66% Calm Calm 0.9 mph1.4 kmh 30.46 in1031.5 mb 0.00 in0.0 mm 0.00 in/hr0.0 mm/hr 0.00 in0.0 mm
03:21 AM 23.4°F-4.8°C 13.6°F-10.2°C 66% Calm Calm 2.0 mph3.2 kmh 30.46 in1031.5 mb 0.00 in0.0 mm 0.00 in/hr0.0 mm/hr 0.00 in0.0 mm
03:31 AM 23.5°F-4.7°C 13.8°F-10.1°C 66% Calm Calm 3.0 mph4.8 kmh 30.46 in1031.5 mb 0.00 in0.0 mm 0.00 in/hr0.0 mm/hr 0.00 in0.0 mm
03:41 AM 23.5°F-4.7°C 14.2°F-9.9°C 67% Calm Calm 0.9 mph1.4 kmh 30.46 in1031.5 mb 0.00 in0.0 mm 0.00 in/hr0.0 mm/hr 0.00 in0.0 mm
03:51 AM 23.4°F-4.8°C 14.4°F-9.8°C 68% Calm Calm -- 30.45 in1031.2 mb 0.00 in0.0 mm 0.00 in/hr0.0 mm/hr 0.00 in0.0 mm
04:01 AM 23.4°F-4.8°C 14.4°F-9.8°C 68% Calm Calm 1.0 mph1.6 kmh 30.45 in1031.2 mb 0.00 in0.0 mm 0.00 in/hr0.0 mm/hr 0.00 in0.0 mm
04:11 AM 23.2°F-4.9°C 14.2°F-9.9°C 68% Calm Calm 1.0 mph1.6 kmh 30.46 in1031.5 mb 0.00 in0.0 mm 0.00 in/hr0.0 mm/hr 0.00 in0.0 mm
04:21 AM 23.4°F-4.8°C 14.4°F-9.8°C 68% Calm Calm 0.9 mph1.4 kmh 30.45 in1031.2 mb 0.00 in0.0 mm 0.00 in/hr0.0 mm/hr 0.00 in0.0 mm
04:31 AM 23.4°F-4.8°C 14.7°F-9.6°C 69% Calm Calm -- 30.45 in1031.2 mb 0.00 in0.0 mm 0.00 in/hr0.0 mm/hr 0.00 in0.0 mm
04:41 AM 23.2°F-4.9°C 14.2°F-9.9°C 68% Calm Calm 1.0 mph1.6 kmh 30.45 in1031.2 mb 0.00 in0.0 mm 0.00 in/hr0.0 mm/hr 0.00 in0.0 mm
04:51 AM 23.4°F-4.8°C 14.7°F-9.6°C 69% Calm Calm 0.9 mph1.4 kmh 30.45 in1031.2 mb 0.00 in0.0 mm 0.00 in/hr0.0 mm/hr 0.00 in0.0 mm
05:01 AM 22.8°F-5.1°C 14.2°F-9.9°C 69% Calm Calm -- 30.45 in1031.2 mb 0.00 in0.0 mm 0.00 in/hr0.0 mm/hr 0.00 in0.0 mm
05:11 AM 22.6°F-5.2°C 14.4°F-9.8°C 70% Calm Calm -- 30.45 in1031.2 mb 0.00 in0.0 mm 0.00 in/hr0.0 mm/hr 0.00 in0.0 mm
05:21 AM 22.5°F-5.3°C 14.5°F-9.7°C 71% Calm Calm -- 30.45 in1031.2 mb 0.00 in0.0 mm 0.00 in/hr0.0 mm/hr 0.00 in0.0 mm
05:31 AM 22.1°F-5.5°C 14.7°F-9.6°C 73% Calm Calm -- 30.45 in1031.2 mb 0.00 in0.0 mm 0.00 in/hr0.0 mm/hr 0.00 in0.0 mm
05:41 AM 21.9°F-5.6°C 14.5°F-9.7°C 73% Calm Calm -- 30.46 in1031.5 mb 0.00 in0.0 mm 0.00 in/hr0.0 mm/hr 0.00 in0.0 mm
05:51 AM 21.9°F-5.6°C 14.9°F-9.5°C 74% Calm Calm -- 30.46 in1031.5 mb 0.00 in0.0 mm 0.00 in/hr0.0 mm/hr 0.00 in0.0 mm
06:01 AM 21.7°F-5.7°C 14.7°F-9.6°C 74% Calm Calm -- 30.46 in1031.5 mb 0.00 in0.0 mm 0.00 in/hr0.0 mm/hr 0.00 in0.0 mm
06:11 AM 21.7°F-5.7°C 15.1°F-9.4°C 75% Calm Calm -- 30.46 in1031.5 mb 0.00 in0.0 mm 0.00 in/hr0.0 mm/hr 0.00 in0.0 mm
06:21 AM 21.7°F-5.7°C 15.1°F-9.4°C 75% Calm Calm -- 30.46 in1031.5 mb 0.00 in0.0 mm 0.00 in/hr0.0 mm/hr 0.00 in0.0 mm
06:31 AM 21.4°F-5.9°C 14.7°F-9.6°C 75% Calm Calm -- 30.47 in1031.8 mb 0.00 in0.0 mm 0.00 in/hr0.0 mm/hr 0.00 in0.0 mm
06:41 AM 21.0°F-6.1°C 14.7°F-9.6°C 76% Calm Calm -- 30.46 in1031.5 mb 0.00 in0.0 mm 0.00 in/hr0.0 mm/hr 0.00 in0.0 mm
06:51 AM 20.8°F-6.2°C 14.7°F-9.6°C 77% Calm Calm -- 30.46 in1031.5 mb 0.00 in0.0 mm 0.00 in/hr0.0 mm/hr 0.00 in0.0 mm
07:01 AM 20.8°F-6.2°C 15.1°F-9.4°C 78% Calm Calm -- 30.46 in1031.5 mb 0.00 in0.0 mm 0.00 in/hr0.0 mm/hr 0.00 in0.0 mm
07:11 AM 21.0°F-6.1°C 15.3°F-9.3°C 78% Calm Calm -- 30.46 in1031.5 mb 0.00 in0.0 mm 0.00 in/hr0.0 mm/hr 0.00 in0.0 mm
07:21 AM 21.9°F-5.6°C 16.3°F-8.7°C 79% Calm Calm -- 30.46 in1031.5 mb 0.00 in0.0 mm 0.00 in/hr0.0 mm/hr 0.00 in0.0 mm
07:31 AM 22.6°F-5.2°C 17.1°F-8.3°C 79% Calm Calm -- 30.46 in1031.5 mb 0.00 in0.0 mm 0.00 in/hr0.0 mm/hr 0.00 in0.0 mm
07:41 AM 23.9°F-4.5°C 17.4°F-8.1°C 76% Calm Calm 0.9 mph1.4 kmh 30.46 in1031.5 mb 0.00 in0.0 mm 0.00 in/hr0.0 mm/hr 0.00 in0.0 mm
07:51 AM 24.6°F-4.1°C 16.9°F-8.4°C 72% Calm Calm 0.9 mph1.4 kmh 30.45 in1031.2 mb 0.00 in0.0 mm 0.00 in/hr0.0 mm/hr 0.00 in0.0 mm
08:01 AM 25.3°F-3.7°C 17.2°F-8.2°C 71% Calm Calm 0.9 mph1.4 kmh 30.46 in1031.5 mb 0.00 in0.0 mm 0.00 in/hr0.0 mm/hr 0.00 in0.0 mm
08:11 AM 26.2°F-3.2°C 17.4°F-8.1°C 69% Calm Calm 0.9 mph1.4 kmh 30.46 in1031.5 mb 0.00 in0.0 mm 0.00 in/hr0.0 mm/hr 0.00 in0.0 mm
08:21 AM 27.0°F-2.8°C 17.8°F-7.9°C 68% Calm Calm 3.0 mph4.8 kmh 30.46 in1031.5 mb 0.00 in0.0 mm 0.00 in/hr0.0 mm/hr 0.00 in0.0 mm
08:31 AM 27.9°F-2.3°C 18.0°F-7.8°C 66% Calm Calm 2.9 mph4.7 kmh 30.46 in1031.5 mb 0.00 in0.0 mm 0.00 in/hr0.0 mm/hr 0.00 in0.0 mm
08:41 AM 28.6°F-1.9°C 18.3°F-7.6°C 65% 0.9 mph SSW1.4 kmh SSW 4.0 mph6.4 kmh 30.45 in1031.2 mb 0.00 in0.0 mm 0.00 in/hr0.0 mm/hr 0.00 in0.0 mm
08:51 AM 29.5°F-1.4°C 18.5°F-7.5°C 63% 0.9 mph SW1.4 kmh SW 4.9 mph7.9 kmh 30.45 in1031.2 mb 0.00 in0.0 mm 0.00 in/hr0.0 mm/hr 0.00 in0.0 mm
09:01 AM 30.4°F-0.9°C 18.9°F-7.3°C 62% 0.9 mph WNW1.4 kmh WNW 2.9 mph4.7 kmh 30.45 in1031.2 mb 0.00 in0.0 mm 0.00 in/hr0.0 mm/hr 0.00 in0.0 mm
09:11 AM 31.3°F-0.4°C 18.1°F-7.7°C 58% 0.9 mph SW1.4 kmh SW 4.0 mph6.4 kmh 30.44 in1030.8 mb 0.00 in0.0 mm 0.00 in/hr0.0 mm/hr 0.00 in0.0 mm
09:21 AM 32.2°F0.1°C 17.8°F-7.9°C 55% 0.9 mph SW1.4 kmh SW 4.0 mph6.4 kmh 30.44 in1030.8 mb 0.00 in0.0 mm 0.00 in/hr0.0 mm/hr 0.00 in0.0 mm
09:31 AM 33.1°F0.6°C 18.3°F-7.6°C 54% 2.0 mph SW3.2 kmh SW 4.9 mph7.9 kmh 30.43 in1030.5 mb 0.00 in0.0 mm 0.00 in/hr0.0 mm/hr 0.00 in0.0 mm
09:41 AM 33.4°F0.8°C 17.8°F-7.9°C 52% 2.0 mph SW3.2 kmh SW 7.0 mph11.3 kmh 30.42 in1030.1 mb 0.00 in0.0 mm 0.00 in/hr0.0 mm/hr 0.00 in0.0 mm
09:51 AM 34.0°F1.1°C 18.1°F-7.7°C 52% 2.0 mph SW3.2 kmh SW 6.9 mph11.1 kmh 30.42 in1030.1 mb 0.00 in0.0 mm 0.00 in/hr0.0 mm/hr 0.00 in0.0 mm
10:01 AM 34.9°F1.6°C 17.2°F-8.2°C 48% 2.0 mph S3.2 kmh S 8.0 mph12.9 kmh 30.42 in1030.1 mb 0.00 in0.0 mm 0.00 in/hr0.0 mm/hr 0.00 in0.0 mm
10:11 AM 35.8°F2.1°C 17.6°F-8.0°C 47% 2.0 mph NW3.2 kmh NW 6.0 mph9.7 kmh 30.41 in1029.8 mb 0.00 in0.0 mm 0.00 in/hr0.0 mm/hr 0.00 in0.0 mm
10:21 AM 36.7°F2.6°C 19.4°F-7.0°C 49% 2.9 mph SSE4.7 kmh SSE 8.1 mph13.0 kmh 30.40 in1029.5 mb 0.00 in0.0 mm 0.00 in/hr0.0 mm/hr 0.00 in0.0 mm
10:31 AM 37.2°F2.9°C 20.8°F-6.2°C 51% 4.0 mph SW6.4 kmh SW 8.1 mph13.0 kmh 30.39 in1029.1 mb 0.00 in0.0 mm 0.00 in/hr0.0 mm/hr 0.00 in0.0 mm
10:41 AM 37.8°F3.2°C 21.7°F-5.7°C 52% 4.0 mph WSW6.4 kmh WSW 10.1 mph16.3 kmh 30.38 in1028.8 mb 0.00 in0.0 mm 0.00 in/hr0.0 mm/hr 0.00 in0.0 mm
10:51 AM 38.3°F3.5°C 22.3°F-5.4°C 52% 4.0 mph SW6.4 kmh SW 12.1 mph19.5 kmh 30.37 in1028.4 mb 0.00 in0.0 mm 0.00 in/hr0.0 mm/hr 0.00 in0.0 mm
11:01 AM 38.7°F3.7°C 22.6°F-5.2°C 52% 4.0 mph SW6.4 kmh SW 12.1 mph19.5 kmh 30.36 in1028.1 mb 0.00 in0.0 mm 0.00 in/hr0.0 mm/hr 0.00 in0.0 mm
11:11 AM 39.4°F4.1°C 22.3°F-5.4°C 50% 4.0 mph SW6.4 kmh SW 11.0 mph17.7 kmh 30.35 in1027.8 mb 0.00 in0.0 mm 0.00 in/hr0.0 mm/hr 0.00 in0.0 mm
11:21 AM 40.3°F4.6°C 21.7°F-5.7°C 47% 4.9 mph WSW7.9 kmh WSW 10.1 mph16.3 kmh 30.34 in1027.4 mb 0.00 in0.0 mm 0.00 in/hr0.0 mm/hr 0.00 in0.0 mm
11:31 AM 40.6°F4.8°C 22.5°F-5.3°C 48% 4.9 mph SSW7.9 kmh SSW 13.0 mph20.9 kmh 30.33 in1027.1 mb 0.00 in0.0 mm 0.00 in/hr0.0 mm/hr 0.00 in0.0 mm
11:41 AM 41.4°F5.2°C 22.6°F-5.2°C 47% 4.9 mph S7.9 kmh S 12.1 mph19.5 kmh 30.32 in1026.8 mb 0.00 in0.0 mm 0.00 in/hr0.0 mm/hr 0.00 in0.0 mm
11:51 AM 41.7°F5.4°C 23.0°F-5.0°C 47% 2.9 mph ESE4.7 kmh ESE 8.9 mph14.3 kmh 30.31 in1026.4 mb 0.00 in0.0 mm 0.00 in/hr0.0 mm/hr 0.00 in0.0 mm
12:01 PM 41.5°F5.3°C 22.3°F-5.4°C 46% 4.9 mph S7.9 kmh S 13.0 mph20.9 kmh 30.31 in1026.4 mb 0.00 in0.0 mm 0.00 in/hr0.0 mm/hr 0.00 in0.0 mm
12:11 PM 42.6°F5.9°C 23.4°F-4.8°C 46% 4.0 mph WSW6.4 kmh WSW 10.1 mph16.3 kmh 30.29 in1025.7 mb 0.00 in0.0 mm 0.00 in/hr0.0 mm/hr 0.00 in0.0 mm
12:21 PM 42.4°F5.8°C 23.2°F-4.9°C 46% 4.0 mph SW6.4 kmh SW 10.1 mph16.3 kmh 30.29 in1025.7 mb 0.00 in0.0 mm 0.00 in/hr0.0 mm/hr 0.00 in0.0 mm
12:31 PM 41.9°F5.5°C 23.7°F-4.6°C 48% 4.0 mph SSW6.4 kmh SSW 8.1 mph13.0 kmh 30.28 in1025.4 mb 0.00 in0.0 mm 0.00 in/hr0.0 mm/hr 0.00 in0.0 mm
12:41 PM 42.3°F5.7°C 24.4°F-4.2°C 49% 2.9 mph S4.7 kmh S 11.0 mph17.7 kmh 30.28 in1025.4 mb 0.00 in0.0 mm 0.00 in/hr0.0 mm/hr 0.00 in0.0 mm
12:51 PM 42.6°F5.9°C 24.3°F-4.3°C 48% 4.0 mph SW6.4 kmh SW 10.1 mph16.3 kmh 30.28 in1025.4 mb 0.00 in0.0 mm 0.00 in/hr0.0 mm/hr 0.00 in0.0 mm
01:01 PM 42.6°F5.9°C 23.7°F-4.6°C 47% 2.9 mph SSW4.7 kmh SSW 8.1 mph13.0 kmh 30.27 in1025.1 mb 0.00 in0.0 mm 0.00 in/hr0.0 mm/hr 0.00 in0.0 mm
01:11 PM 42.6°F5.9°C 24.8°F-4.0°C 49% 4.0 mph E6.4 kmh E 8.1 mph13.0 kmh 30.26 in1024.7 mb 0.00 in0.0 mm 0.00 in/hr0.0 mm/hr 0.00 in0.0 mm
01:21 PM 43.0°F6.1°C 24.1°F-4.4°C 47% 2.9 mph SSW4.7 kmh SSW 13.0 mph20.9 kmh 30.26 in1024.7 mb 0.00 in0.0 mm 0.00 in/hr0.0 mm/hr 0.00 in0.0 mm
01:31 PM 42.4°F5.8°C 24.1°F-4.4°C 48% 6.9 mph WSW11.1 kmh WSW 15.0 mph24.1 kmh 30.26 in1024.7 mb 0.00 in0.0 mm 0.00 in/hr0.0 mm/hr 0.00 in0.0 mm
01:41 PM 42.4°F5.8°C 24.6°F-4.1°C 49% 4.9 mph SW7.9 kmh SW 14.0 mph22.5 kmh 30.26 in1024.7 mb 0.00 in0.0 mm 0.00 in/hr0.0 mm/hr 0.00 in0.0 mm
01:51 PM 42.4°F5.8°C 23.2°F-4.9°C 46% 4.9 mph SSE7.9 kmh SSE 11.0 mph17.7 kmh 30.25 in1024.4 mb 0.00 in0.0 mm 0.00 in/hr0.0 mm/hr 0.00 in0.0 mm
02:01 PM 42.3°F5.7°C 23.0°F-5.0°C 46% 4.0 mph SSE6.4 kmh SSE 9.0 mph14.5 kmh 30.25 in1024.4 mb 0.00 in0.0 mm 0.00 in/hr0.0 mm/hr 0.00 in0.0 mm
02:11 PM 42.4°F5.8°C 22.6°F-5.2°C 45% 4.0 mph S6.4 kmh S 11.0 mph17.7 kmh 30.25 in1024.4 mb 0.00 in0.0 mm 0.00 in/hr0.0 mm/hr 0.00 in0.0 mm
02:21 PM 42.3°F5.7°C 23.0°F-5.0°C 46% 4.9 mph WSW7.9 kmh WSW 12.1 mph19.5 kmh 30.24 in1024.0 mb 0.00 in0.0 mm 0.00 in/hr0.0 mm/hr 0.00 in0.0 mm
02:31 PM 42.3°F5.7°C 23.5°F-4.7°C 47% 4.9 mph SSW7.9 kmh SSW 11.0 mph17.7 kmh 30.24 in1024.0 mb 0.00 in0.0 mm 0.00 in/hr0.0 mm/hr 0.00 in0.0 mm
02:41 PM 42.4°F5.8°C 23.7°F-4.6°C 47% 4.9 mph SSW7.9 kmh SSW 14.0 mph22.5 kmh 30.23 in1023.7 mb 0.00 in0.0 mm 0.00 in/hr0.0 mm/hr 0.00 in0.0 mm
02:51 PM 42.4°F5.8°C 23.2°F-4.9°C 46% 4.9 mph WSW7.9 kmh WSW 12.1 mph19.5 kmh 30.23 in1023.7 mb 0.00 in0.0 mm 0.00 in/hr0.0 mm/hr 0.00 in0.0 mm
03:01 PM 42.6°F5.9°C 23.4°F-4.8°C 46% 2.9 mph SSW4.7 kmh SSW 8.9 mph14.3 kmh 30.23 in1023.7 mb 0.00 in0.0 mm 0.00 in/hr0.0 mm/hr 0.00 in0.0 mm
03:11 PM 42.3°F5.7°C 21.9°F-5.6°C 44% 4.0 mph SSW6.4 kmh SSW 15.0 mph24.1 kmh 30.22 in1023.4 mb 0.00 in0.0 mm 0.00 in/hr0.0 mm/hr 0.00 in0.0 mm
03:21 PM 42.1°F5.6°C 23.4°F-4.8°C 47% 4.0 mph S6.4 kmh S 8.9 mph14.3 kmh 30.22 in1023.4 mb 0.00 in0.0 mm 0.00 in/hr0.0 mm/hr 0.00 in0.0 mm
03:31 PM 41.5°F5.3°C 24.8°F-4.0°C 51% 2.9 mph S4.7 kmh S 11.0 mph17.7 kmh 30.22 in1023.4 mb 0.00 in0.0 mm 0.00 in/hr0.0 mm/hr 0.00 in0.0 mm
03:41 PM 41.2°F5.1°C 25.9°F-3.4°C 54% 2.9 mph SW4.7 kmh SW 8.1 mph13.0 kmh 30.22 in1023.4 mb 0.00 in0.0 mm 0.00 in/hr0.0 mm/hr 0.00 in0.0 mm
03:51 PM 40.8°F4.9°C 26.4°F-3.1°C 56% 4.0 mph SSW6.4 kmh SSW 11.0 mph17.7 kmh 30.22 in1023.4 mb 0.00 in0.0 mm 0.00 in/hr0.0 mm/hr 0.00 in0.0 mm
04:01 PM 40.6°F4.8°C 26.2°F-3.2°C 56% 4.9 mph SSW7.9 kmh SSW 11.0 mph17.7 kmh 30.21 in1023.0 mb 0.00 in0.0 mm 0.00 in/hr0.0 mm/hr 0.00 in0.0 mm
04:11 PM 40.3°F4.6°C 26.2°F-3.2°C 57% 4.0 mph SW6.4 kmh SW 10.0 mph16.1 kmh 30.21 in1023.0 mb 0.00 in0.0 mm 0.00 in/hr0.0 mm/hr 0.00 in0.0 mm
04:21 PM 39.9°F4.4°C 26.4°F-3.1°C 58% 2.9 mph SW4.7 kmh SW 8.1 mph13.0 kmh 30.21 in1023.0 mb 0.00 in0.0 mm 0.00 in/hr0.0 mm/hr 0.00 in0.0 mm
04:31 PM 39.7°F4.3°C 26.6°F-3.0°C 59% 2.9 mph WSW4.7 kmh WSW 6.9 mph11.1 kmh 30.21 in1023.0 mb 0.00 in0.0 mm 0.00 in/hr0.0 mm/hr 0.00 in0.0 mm
04:41 PM 39.7°F4.3°C 27.0°F-2.8°C 60% 2.9 mph WSW4.7 kmh WSW 6.9 mph11.1 kmh 30.22 in1023.4 mb 0.00 in0.0 mm 0.00 in/hr0.0 mm/hr 0.00 in0.0 mm
04:51 PM 39.6°F4.2°C 27.1°F-2.7°C 61% 2.0 mph S3.2 kmh S 6.0 mph9.7 kmh 30.21 in1023.0 mb 0.00 in0.0 mm 0.00 in/hr0.0 mm/hr 0.00 in0.0 mm
05:01 PM 39.6°F4.2°C 27.7°F-2.4°C 62% 2.0 mph W3.2 kmh W 6.0 mph9.7 kmh 30.21 in1023.0 mb 0.00 in0.0 mm 0.00 in/hr0.0 mm/hr 0.00 in0.0 mm
05:11 PM 39.6°F4.2°C 27.7°F-2.4°C 62% 2.0 mph S3.2 kmh S 6.9 mph11.1 kmh 30.20 in1022.7 mb 0.00 in0.0 mm 0.00 in/hr0.0 mm/hr 0.00 in0.0 mm
05:21 PM 39.7°F4.3°C 27.9°F-2.3°C 62% 2.9 mph S4.7 kmh S 6.9 mph11.1 kmh 30.20 in1022.7 mb 0.00 in0.0 mm 0.00 in/hr0.0 mm/hr 0.00 in0.0 mm
05:31 PM 40.1°F4.5°C 28.0°F-2.2°C 62% 2.9 mph SW4.7 kmh SW 6.0 mph9.7 kmh 30.20 in1022.7 mb 0.00 in0.0 mm 0.00 in/hr0.0 mm/hr 0.00 in0.0 mm
05:41 PM 40.5°F4.7°C 28.9°F-1.7°C 63% 2.9 mph SSW4.7 kmh SSW 8.9 mph14.3 kmh 30.20 in1022.7 mb 0.00 in0.0 mm 0.00 in/hr0.0 mm/hr 0.00 in0.0 mm
05:51 PM 40.6°F4.8°C 29.1°F-1.6°C 63% 2.9 mph SW4.7 kmh SW 8.1 mph13.0 kmh 30.20 in1022.7 mb 0.00 in0.0 mm 0.00 in/hr0.0 mm/hr 0.00 in0.0 mm
06:01 PM 41.0°F5.0°C 29.8°F-1.2°C 64% 2.9 mph SW4.7 kmh SW 7.0 mph11.3 kmh 30.20 in1022.7 mb 0.00 in0.0 mm 0.00 in/hr0.0 mm/hr 0.00 in0.0 mm
06:11 PM 41.2°F5.1°C 30.0°F-1.1°C 64% 2.9 mph SW4.7 kmh SW 10.1 mph16.3 kmh 30.19 in1022.4 mb 0.00 in0.0 mm 0.00 in/hr0.0 mm/hr 0.00 in0.0 mm
06:21 PM 41.5°F5.3°C 30.2°F-1.0°C 64% 2.9 mph SW4.7 kmh SW 6.9 mph11.1 kmh 30.18 in1022.0 mb 0.00 in0.0 mm 0.00 in/hr0.0 mm/hr 0.00 in0.0 mm
06:31 PM 41.7°F5.4°C 30.7°F-0.7°C 65% 2.9 mph WSW4.7 kmh WSW 8.9 mph14.3 kmh 30.18 in1022.0 mb 0.00 in0.0 mm 0.00 in/hr0.0 mm/hr 0.00 in0.0 mm
06:41 PM 42.1°F5.6°C 31.1°F-0.5°C 65% 2.9 mph SW4.7 kmh SW 8.1 mph13.0 kmh 30.18 in1022.0 mb 0.00 in0.0 mm 0.00 in/hr0.0 mm/hr 0.00 in0.0 mm
06:51 PM 42.3°F5.7°C 31.6°F-0.2°C 66% 2.9 mph WSW4.7 kmh WSW 8.9 mph14.3 kmh 30.16 in1021.3 mb 0.00 in0.0 mm 0.00 in/hr0.0 mm/hr 0.00 in0.0 mm
07:01 PM 42.6°F5.9°C 32.0°F0.0°C 66% 4.0 mph S6.4 kmh S 11.0 mph17.7 kmh 30.16 in1021.3 mb 0.00 in0.0 mm 0.00 in/hr0.0 mm/hr 0.00 in0.0 mm
07:11 PM 42.8°F6.0°C 32.5°F0.3°C 67% 4.0 mph SSW6.4 kmh SSW 8.9 mph14.3 kmh 30.16 in1021.3 mb 0.00 in0.0 mm 0.00 in/hr0.0 mm/hr 0.00 in0.0 mm
07:21 PM 43.2°F6.2°C 32.9°F0.5°C 67% 4.0 mph SW6.4 kmh SW 8.9 mph14.3 kmh 30.16 in1021.3 mb 0.00 in0.0 mm 0.00 in/hr0.0 mm/hr 0.00 in0.0 mm
07:31 PM 43.2°F6.2°C 32.9°F0.5°C 67% 2.9 mph SW4.7 kmh SW 6.9 mph11.1 kmh 30.16 in1021.3 mb 0.00 in0.0 mm 0.00 in/hr0.0 mm/hr 0.00 in0.0 mm
07:41 PM 43.5°F6.4°C 32.9°F0.5°C 66% 2.9 mph SW4.7 kmh SW 9.0 mph14.5 kmh 30.16 in1021.3 mb 0.00 in0.0 mm 0.00 in/hr0.0 mm/hr 0.00 in0.0 mm
07:51 PM 43.7°F6.5°C 33.1°F0.6°C 66% 4.0 mph SW6.4 kmh SW 9.0 mph14.5 kmh 30.15 in1021.0 mb 0.00 in0.0 mm 0.00 in/hr0.0 mm/hr 0.00 in0.0 mm
08:01 PM 44.1°F6.7°C 33.1°F0.6°C 65% 4.0 mph S6.4 kmh S 10.1 mph16.3 kmh 30.15 in1021.0 mb 0.00 in0.0 mm 0.00 in/hr0.0 mm/hr 0.00 in0.0 mm
08:11 PM 44.2°F6.8°C 33.3°F0.7°C 65% 2.9 mph SSW4.7 kmh SSW 9.0 mph14.5 kmh 30.14 in1020.7 mb 0.00 in0.0 mm 0.00 in/hr0.0 mm/hr 0.00 in0.0 mm
08:21 PM 44.2°F6.8°C 33.3°F0.7°C 65% 4.0 mph SW6.4 kmh SW 10.1 mph16.3 kmh 30.15 in1021.0 mb 0.00 in0.0 mm 0.00 in/hr0.0 mm/hr 0.00 in0.0 mm
08:31 PM 44.2°F6.8°C 33.3°F0.7°C 65% 2.0 mph SW3.2 kmh SW 6.9 mph11.1 kmh 30.15 in1021.0 mb 0.00 in0.0 mm 0.00 in/hr0.0 mm/hr 0.00 in0.0 mm
08:41 PM 44.2°F6.8°C 33.3°F0.7°C 65% 2.0 mph SW3.2 kmh SW 6.0 mph9.7 kmh 30.15 in1021.0 mb 0.00 in0.0 mm 0.00 in/hr0.0 mm/hr 0.00 in0.0 mm
08:51 PM 44.6°F7.0°C 33.3°F0.7°C 64% 2.9 mph SW4.7 kmh SW 9.0 mph14.5 kmh 30.14 in1020.7 mb 0.00 in0.0 mm 0.00 in/hr0.0 mm/hr 0.00 in0.0 mm
09:01 PM 44.4°F6.9°C 33.4°F0.8°C 65% 2.9 mph SW4.7 kmh SW 9.0 mph14.5 kmh 30.14 in1020.7 mb 0.00 in0.0 mm 0.00 in/hr0.0 mm/hr 0.00 in0.0 mm
09:11 PM 44.6°F7.0°C 33.3°F0.7°C 64% 2.9 mph SW4.7 kmh SW 8.1 mph13.0 kmh 30.15 in1021.0 mb 0.00 in0.0 mm 0.00 in/hr0.0 mm/hr 0.00 in0.0 mm
09:21 PM 44.8°F7.1°C 33.3°F0.7°C 64% 2.9 mph S4.7 kmh S 6.9 mph11.1 kmh 30.14 in1020.7 mb 0.00 in0.0 mm 0.00 in/hr0.0 mm/hr 0.00 in0.0 mm
09:31 PM 45.0°F7.2°C 32.7°F0.4°C 62% 4.0 mph SW6.4 kmh SW 9.0 mph14.5 kmh 30.14 in1020.7 mb 0.00 in0.0 mm 0.00 in/hr0.0 mm/hr 0.00 in0.0 mm
09:41 PM 44.8°F7.1°C 32.5°F0.3°C 62% 2.0 mph SW3.2 kmh SW 6.0 mph9.7 kmh 30.14 in1020.7 mb 0.00 in0.0 mm 0.00 in/hr0.0 mm/hr 0.00 in0.0 mm
09:51 PM 44.8°F7.1°C 32.2°F0.1°C 61% 2.9 mph WSW4.7 kmh WSW 8.1 mph13.0 kmh 30.13 in1020.3 mb 0.00 in0.0 mm 0.00 in/hr0.0 mm/hr 0.00 in0.0 mm
10:01 PM 45.0°F7.2°C 32.0°F0.0°C 60% 4.9 mph SSW7.9 kmh SSW 12.1 mph19.5 kmh 30.13 in1020.3 mb 0.00 in0.0 mm 0.00 in/hr0.0 mm/hr 0.00 in0.0 mm
10:11 PM 45.1°F7.3°C 31.6°F-0.2°C 59% 4.0 mph SW6.4 kmh SW 10.1 mph16.3 kmh 30.12 in1020.0 mb 0.00 in0.0 mm 0.00 in/hr0.0 mm/hr 0.00 in0.0 mm
10:21 PM 45.3°F7.4°C 31.8°F-0.1°C 59% 4.0 mph ESE6.4 kmh ESE 10.1 mph16.3 kmh 30.12 in1020.0 mb 0.00 in0.0 mm 0.00 in/hr0.0 mm/hr 0.00 in0.0 mm
10:31 PM 45.3°F7.4°C 31.8°F-0.1°C 59% 4.0 mph SW6.4 kmh SW 8.1 mph13.0 kmh 30.12 in1020.0 mb 0.00 in0.0 mm 0.00 in/hr0.0 mm/hr 0.00 in0.0 mm
10:41 PM 45.3°F7.4°C 31.5°F-0.3°C 58% 2.9 mph WSW4.7 kmh WSW 8.1 mph13.0 kmh 30.13 in1020.3 mb 0.00 in0.0 mm 0.00 in/hr0.0 mm/hr 0.00 in0.0 mm
10:51 PM 45.3°F7.4°C 31.5°F-0.3°C 58% 2.9 mph S4.7 kmh S 8.1 mph13.0 kmh 30.12 in1020.0 mb 0.00 in0.0 mm 0.00 in/hr0.0 mm/hr 0.00 in0.0 mm
11:01 PM 45.3°F7.4°C 31.5°F-0.3°C 58% 2.9 mph SW4.7 kmh SW 8.1 mph13.0 kmh 30.12 in1020.0 mb 0.00 in0.0 mm 0.00 in/hr0.0 mm/hr 0.00 in0.0 mm
11:11 PM 45.1°F7.3°C 31.6°F-0.2°C 59% 2.9 mph S4.7 kmh S 8.1 mph13.0 kmh 30.12 in1020.0 mb 0.00 in0.0 mm 0.00 in/hr0.0 mm/hr 0.00 in0.0 mm
11:21 PM 45.3°F7.4°C 31.8°F-0.1°C 59% 4.0 mph SSW6.4 kmh SSW 10.1 mph16.3 kmh 30.13 in1020.3 mb 0.00 in0.0 mm 0.00 in/hr0.0 mm/hr 0.00 in0.0 mm
11:31 PM 45.3°F7.4°C 31.8°F-0.1°C 59% 2.9 mph SSW4.7 kmh SSW 8.1 mph13.0 kmh 30.13 in1020.3 mb 0.00 in0.0 mm 0.00 in/hr0.0 mm/hr 0.00 in0.0 mm
11:41 PM 45.1°F7.3°C 31.6°F-0.2°C 59% 2.0 mph WSW3.2 kmh WSW 6.0 mph9.7 kmh 30.12 in1020.0 mb 0.00 in0.0 mm 0.00 in/hr0.0 mm/hr 0.00 in0.0 mm
11:51 PM 45.3°F7.4°C 32.2°F0.1°C 60% 2.9 mph SW4.7 kmh SW 8.1 mph13.0 kmh 30.12 in1020.0 mb 0.00 in0.0 mm 0.00 in/hr0.0 mm/hr 0.00 in0.0 mm